sensor_id;sensor_type;location;lat;lon;timestamp;P1;durP1;ratioP1;P2;durP2;ratioP2
7845;SDS011;3968;51.424;6.788;2022-09-20T00:01:02;23.40;;;12.23;;
7845;SDS011;3968;51.424;6.788;2022-09-20T00:03:31;26.57;;;12.57;;
7845;SDS011;3968;51.424;6.788;2022-09-20T00:05:59;17.90;;;9.77;;
7845;SDS011;3968;51.424;6.788;2022-09-20T00:08:26;24.70;;;11.43;;
7845;SDS011;3968;51.424;6.788;2022-09-20T00:10:56;22.17;;;11.07;;
7845;SDS011;3968;51.424;6.788;2022-09-20T00:13:24;20.97;;;11.00;;
7845;SDS011;3968;51.424;6.788;2022-09-20T00:15:49;21.20;;;11.63;;
7845;SDS011;3968;51.424;6.788;2022-09-20T00:18:15;21.80;;;11.87;;
7845;SDS011;3968;51.424;6.788;2022-09-20T00:20:44;22.53;;;11.53;;
7845;SDS011;3968;51.424;6.788;2022-09-20T00:23:10;21.63;;;11.13;;
7845;SDS011;3968;51.424;6.788;2022-09-20T00:25:36;27.17;;;13.00;;
7845;SDS011;3968;51.424;6.788;2022-09-20T00:28:02;22.93;;;11.67;;
7845;SDS011;3968;51.424;6.788;2022-09-20T00:30:27;17.17;;;10.40;;
7845;SDS011;3968;51.424;6.788;2022-09-20T00:32:53;19.33;;;10.47;;
7845;SDS011;3968;51.424;6.788;2022-09-20T00:35:19;18.27;;;10.83;;
7845;SDS011;3968;51.424;6.788;2022-09-20T00:37:45;21.60;;;10.03;;
7845;SDS011;3968;51.424;6.788;2022-09-20T00:40:15;19.47;;;9.50;;
7845;SDS011;3968;51.424;6.788;2022-09-20T00:42:42;19.10;;;9.20;;
7845;SDS011;3968;51.424;6.788;2022-09-20T00:45:21;16.90;;;9.50;;
7845;SDS011;3968;51.424;6.788;2022-09-20T00:47:54;19.03;;;9.30;;
7845;SDS011;3968;51.424;6.788;2022-09-20T00:50:35;14.20;;;8.33;;
7845;SDS011;3968;51.424;6.788;2022-09-20T00:53:10;17.13;;;8.53;;
7845;SDS011;3968;51.424;6.788;2022-09-20T00:55:41;14.97;;;7.50;;
7845;SDS011;3968;51.424;6.788;2022-09-20T00:58:11;23.70;;;8.77;;
7845;SDS011;3968;51.424;6.788;2022-09-20T01:00:38;16.07;;;9.47;;
7845;SDS011;3968;51.424;6.788;2022-09-20T01:03:05;16.60;;;9.03;;
7845;SDS011;3968;51.424;6.788;2022-09-20T01:05:33;20.07;;;8.30;;
7845;SDS011;3968;51.424;6.788;2022-09-20T01:08:00;20.13;;;8.27;;
7845;SDS011;3968;51.424;6.788;2022-09-20T01:10:26;14.87;;;8.03;;
7845;SDS011;3968;51.424;6.788;2022-09-20T01:12:52;16.97;;;7.70;;
7845;SDS011;3968;51.424;6.788;2022-09-20T01:15:18;15.33;;;8.00;;
7845;SDS011;3968;51.424;6.788;2022-09-20T01:17:49;16.40;;;7.87;;
7845;SDS011;3968;51.424;6.788;2022-09-20T01:25:44;15.17;;;7.23;;
7845;SDS011;3968;51.424;6.788;2022-09-20T01:28:31;16.90;;;7.67;;
7845;SDS011;3968;51.424;6.788;2022-09-20T01:33:59;16.63;;;7.33;;
7845;SDS011;3968;51.424;6.788;2022-09-20T01:36:32;16.00;;;7.80;;
7845;SDS011;3968;51.424;6.788;2022-09-20T01:39:25;13.93;;;7.40;;
7845;SDS011;3968;51.424;6.788;2022-09-20T01:41:54;16.23;;;7.20;;
7845;SDS011;3968;51.424;6.788;2022-09-20T01:50:10;19.30;;;7.10;;
7845;SDS011;3968;51.424;6.788;2022-09-20T01:53:01;14.47;;;7.63;;
7845;SDS011;3968;51.424;6.788;2022-09-20T01:58:20;16.40;;;6.43;;
7845;SDS011;3968;51.424;6.788;2022-09-20T02:10:17;15.13;;;6.43;;
7845;SDS011;3968;51.424;6.788;2022-09-20T02:13:11;13.33;;;6.80;;
7845;SDS011;3968;51.424;6.788;2022-09-20T02:19:09;15.77;;;8.17;;
7845;SDS011;3968;51.424;6.788;2022-09-20T02:36:23;14.40;;;7.27;;
7845;SDS011;3968;51.424;6.788;2022-09-20T02:42:00;12.13;;;6.77;;
7845;SDS011;3968;51.424;6.788;2022-09-20T02:47:37;17.93;;;7.37;;
7845;SDS011;3968;51.424;6.788;2022-09-20T03:00:27;14.73;;;7.30;;
7845;SDS011;3968;51.424;6.788;2022-09-20T03:03:17;13.37;;;6.97;;
7845;SDS011;3968;51.424;6.788;2022-09-20T03:06:19;11.67;;;6.80;;
7845;SDS011;3968;51.424;6.788;2022-09-20T03:09:10;12.87;;;6.47;;
7845;SDS011;3968;51.424;6.788;2022-09-20T03:12:22;14.43;;;7.27;;
7845;SDS011;3968;51.424;6.788;2022-09-20T03:14:36;20.50;;;7.23;;
7845;SDS011;3968;51.424;6.788;2022-09-20T03:19:59;18.20;;;7.33;;
7845;SDS011;3968;51.424;6.788;2022-09-20T03:22:52;13.33;;;5.83;;
7845;SDS011;3968;51.424;6.788;2022-09-20T03:30:53;14.27;;;6.27;;
7845;SDS011;3968;51.424;6.788;2022-09-20T03:46:43;16.67;;;6.63;;
7845;SDS011;3968;51.424;6.788;2022-09-20T04:03:34;12.03;;;5.10;;
7845;SDS011;3968;51.424;6.788;2022-09-20T04:09:18;15.90;;;5.33;;
7845;SDS011;3968;51.424;6.788;2022-09-20T04:15:17;13.90;;;5.63;;
7845;SDS011;3968;51.424;6.788;2022-09-20T04:23:42;13.37;;;5.73;;
7845;SDS011;3968;51.424;6.788;2022-09-20T04:26:25;15.93;;;5.80;;
7845;SDS011;3968;51.424;6.788;2022-09-20T04:34:37;13.77;;;5.40;;
7845;SDS011;3968;51.424;6.788;2022-09-20T04:37:32;10.20;;;5.33;;
7845;SDS011;3968;51.424;6.788;2022-09-20T04:40:12;13.10;;;5.33;;
7845;SDS011;3968;51.424;6.788;2022-09-20T05:11:04;17.73;;;5.30;;
7845;SDS011;3968;51.424;6.788;2022-09-20T05:14:02;14.47;;;5.00;;
7845;SDS011;3968;51.424;6.788;2022-09-20T05:25:13;12.57;;;5.83;;
7845;SDS011;3968;51.424;6.788;2022-09-20T05:28:05;12.97;;;5.13;;
7845;SDS011;3968;51.424;6.788;2022-09-20T05:33:14;17.30;;;5.57;;
7845;SDS011;3968;51.424;6.788;2022-09-20T05:44:53;13.93;;;5.83;;
7845;SDS011;3968;51.424;6.788;2022-09-20T05:47:28;18.67;;;6.07;;
7845;SDS011;3968;51.424;6.788;2022-09-20T05:56:15;16.43;;;5.40;;
7845;SDS011;3968;51.424;6.788;2022-09-20T05:59:12;16.77;;;6.10;;
7845;SDS011;3968;51.424;6.788;2022-09-20T06:04:28;11.97;;;6.30;;
7845;SDS011;3968;51.424;6.788;2022-09-20T06:07:05;16.20;;;6.53;;
7845;SDS011;3968;51.424;6.788;2022-09-20T06:09:53;16.53;;;5.70;;
7845;SDS011;3968;51.424;6.788;2022-09-20T06:15:21;14.27;;;6.10;;
7845;SDS011;3968;51.424;6.788;2022-09-20T06:20:30;14.03;;;7.03;;
7845;SDS011;3968;51.424;6.788;2022-09-20T06:23:10;16.03;;;5.87;;
7845;SDS011;3968;51.424;6.788;2022-09-20T06:25:49;15.50;;;7.17;;
7845;SDS011;3968;51.424;6.788;2022-09-20T06:28:34;15.77;;;6.47;;
7845;SDS011;3968;51.424;6.788;2022-09-20T06:31:05;10.53;;;7.23;;
7845;SDS011;3968;51.424;6.788;2022-09-20T06:33:37;17.70;;;6.20;;
7845;SDS011;3968;51.424;6.788;2022-09-20T06:36:10;9.87;;;5.87;;
7845;SDS011;3968;51.424;6.788;2022-09-20T06:41:40;20.00;;;7.37;;
7845;SDS011;3968;51.424;6.788;2022-09-20T06:44:06;15.53;;;6.03;;
7845;SDS011;3968;51.424;6.788;2022-09-20T06:46:33;11.30;;;5.70;;
7845;SDS011;3968;51.424;6.788;2022-09-20T06:49:03;14.73;;;6.97;;
7845;SDS011;3968;51.424;6.788;2022-09-20T06:51:36;14.00;;;5.73;;
7845;SDS011;3968;51.424;6.788;2022-09-20T06:54:03;14.33;;;6.53;;
7845;SDS011;3968;51.424;6.788;2022-09-20T06:56:30;16.93;;;5.63;;
7845;SDS011;3968;51.424;6.788;2022-09-20T06:59:00;10.87;;;5.87;;
7845;SDS011;3968;51.424;6.788;2022-09-20T07:01:26;13.80;;;6.13;;
7845;SDS011;3968;51.424;6.788;2022-09-20T07:03:52;14.33;;;6.20;;
7845;SDS011;3968;51.424;6.788;2022-09-20T07:06:17;14.10;;;5.57;;
7845;SDS011;3968;51.424;6.788;2022-09-20T07:08:44;11.33;;;5.23;;
7845;SDS011;3968;51.424;6.788;2022-09-20T07:11:11;11.33;;;6.07;;
7845;SDS011;3968;51.424;6.788;2022-09-20T07:13:43;7.70;;;5.33;;
7845;SDS011;3968;51.424;6.788;2022-09-20T07:16:22;15.00;;;5.77;;
7845;SDS011;3968;51.424;6.788;2022-09-20T07:18:51;14.23;;;6.03;;
7845;SDS011;3968;51.424;6.788;2022-09-20T07:21:18;15.83;;;5.83;;
7845;SDS011;3968;51.424;6.788;2022-09-20T07:23:45;11.73;;;5.77;;
7845;SDS011;3968;51.424;6.788;2022-09-20T07:29:23;12.87;;;5.20;;
7845;SDS011;3968;51.424;6.788;2022-09-20T07:31:49;15.60;;;5.20;;
7845;SDS011;3968;51.424;6.788;2022-09-20T07:34:15;8.63;;;5.27;;
7845;SDS011;3968;51.424;6.788;2022-09-20T07:36:47;10.47;;;5.03;;
7845;SDS011;3968;51.424;6.788;2022-09-20T07:39:14;13.20;;;4.70;;
7845;SDS011;3968;51.424;6.788;2022-09-20T07:41:40;12.03;;;5.33;;
7845;SDS011;3968;51.424;6.788;2022-09-20T07:44:07;13.67;;;5.27;;
7845;SDS011;3968;51.424;6.788;2022-09-20T07:46:48;14.33;;;5.47;;
7845;SDS011;3968;51.424;6.788;2022-09-20T07:49:15;14.17;;;5.20;;
7845;SDS011;3968;51.424;6.788;2022-09-20T07:51:41;11.83;;;5.40;;
7845;SDS011;3968;51.424;6.788;2022-09-20T07:54:06;12.17;;;5.20;;
7845;SDS011;3968;51.424;6.788;2022-09-20T07:56:32;13.13;;;5.83;;
7845;SDS011;3968;51.424;6.788;2022-09-20T07:58:58;15.03;;;5.10;;
7845;SDS011;3968;51.424;6.788;2022-09-20T08:01:24;10.83;;;3.73;;
7845;SDS011;3968;51.424;6.788;2022-09-20T08:03:49;10.83;;;5.13;;
7845;SDS011;3968;51.424;6.788;2022-09-20T08:06:16;13.00;;;4.23;;
7845;SDS011;3968;51.424;6.788;2022-09-20T08:08:43;16.27;;;5.00;;
7845;SDS011;3968;51.424;6.788;2022-09-20T08:11:13;11.65;;;3.50;;
7845;SDS011;3968;51.424;6.788;2022-09-20T08:13:41;11.13;;;3.90;;
7845;SDS011;3968;51.424;6.788;2022-09-20T08:16:11;10.05;;;3.33;;
7845;SDS011;3968;51.424;6.788;2022-09-20T08:18:38;15.60;;;6.57;;
7845;SDS011;3968;51.424;6.788;2022-09-20T08:21:14;12.10;;;4.57;;
7845;SDS011;3968;51.424;6.788;2022-09-20T08:23:41;11.93;;;5.07;;
7845;SDS011;3968;51.424;6.788;2022-09-20T08:26:09;14.33;;;6.00;;
7845;SDS011;3968;51.424;6.788;2022-09-20T08:28:37;7.97;;;2.80;;
7845;SDS011;3968;51.424;6.788;2022-09-20T08:31:08;11.73;;;5.57;;
7845;SDS011;3968;51.424;6.788;2022-09-20T08:33:35;8.53;;;3.03;;
7845;SDS011;3968;51.424;6.788;2022-09-20T08:36:02;7.80;;;3.27;;
7845;SDS011;3968;51.424;6.788;2022-09-20T08:38:29;4.32;;;2.83;;
7845;SDS011;3968;51.424;6.788;2022-09-20T08:40:56;13.23;;;3.57;;
7845;SDS011;3968;51.424;6.788;2022-09-20T08:43:27;10.20;;;2.43;;
7845;SDS011;3968;51.424;6.788;2022-09-20T08:45:57;11.15;;;3.40;;
7845;SDS011;3968;51.424;6.788;2022-09-20T08:48:27;9.82;;;3.53;;
7845;SDS011;3968;51.424;6.788;2022-09-20T08:51:02;8.30;;;3.73;;
7845;SDS011;3968;51.424;6.788;2022-09-20T08:53:30;9.40;;;3.60;;
7845;SDS011;3968;51.424;6.788;2022-09-20T08:55:59;7.93;;;2.90;;
7845;SDS011;3968;51.424;6.788;2022-09-20T08:58:25;9.70;;;3.37;;
7845;SDS011;3968;51.424;6.788;2022-09-20T09:00:51;14.05;;;2.70;;
7845;SDS011;3968;51.424;6.788;2022-09-20T09:03:20;11.83;;;3.30;;
7845;SDS011;3968;51.424;6.788;2022-09-20T09:08:18;9.52;;;3.83;;
7845;SDS011;3968;51.424;6.788;2022-09-20T09:10:55;12.03;;;3.30;;
7845;SDS011;3968;51.424;6.788;2022-09-20T09:13:25;12.20;;;3.47;;
7845;SDS011;3968;51.424;6.788;2022-09-20T09:16:00;11.57;;;3.50;;
7845;SDS011;3968;51.424;6.788;2022-09-20T09:18:35;12.07;;;2.97;;
7845;SDS011;3968;51.424;6.788;2022-09-20T09:21:03;4.13;;;2.00;;
7845;SDS011;3968;51.424;6.788;2022-09-20T09:23:41;12.77;;;3.35;;
7845;SDS011;3968;51.424;6.788;2022-09-20T09:26:36;9.82;;;2.60;;
7845;SDS011;3968;51.424;6.788;2022-09-20T09:29:07;11.25;;;2.40;;
7845;SDS011;3968;51.424;6.788;2022-09-20T09:31:51;10.00;;;3.47;;
7845;SDS011;3968;51.424;6.788;2022-09-20T09:34:31;12.65;;;3.40;;
7845;SDS011;3968;51.424;6.788;2022-09-20T09:36:59;6.82;;;2.50;;
7845;SDS011;3968;51.424;6.788;2022-09-20T09:39:29;8.70;;;2.85;;
7845;SDS011;3968;51.424;6.788;2022-09-20T09:41:56;6.72;;;2.72;;
7845;SDS011;3968;51.424;6.788;2022-09-20T09:44:27;6.22;;;2.20;;
7845;SDS011;3968;51.424;6.788;2022-09-20T09:46:59;8.73;;;2.03;;
7845;SDS011;3968;51.424;6.788;2022-09-20T09:49:26;7.20;;;2.30;;
7845;SDS011;3968;51.424;6.788;2022-09-20T09:54:44;10.77;;;2.35;;
7845;SDS011;3968;51.424;6.788;2022-09-20T09:57:28;12.65;;;2.70;;
7845;SDS011;3968;51.424;6.788;2022-09-20T10:00:21;10.77;;;2.00;;
7845;SDS011;3968;51.424;6.788;2022-09-20T10:11:56;9.80;;;1.90;;
7845;SDS011;3968;51.424;6.788;2022-09-20T10:17:15;5.47;;;1.70;;
7845;SDS011;3968;51.424;6.788;2022-09-20T10:20:02;9.77;;;1.90;;
7845;SDS011;3968;51.424;6.788;2022-09-20T10:25:15;9.57;;;2.22;;
7845;SDS011;3968;51.424;6.788;2022-09-20T10:30:35;4.55;;;1.70;;
7845;SDS011;3968;51.424;6.788;2022-09-20T10:33:14;6.65;;;1.75;;
7845;SDS011;3968;51.424;6.788;2022-09-20T10:38:33;5.85;;;2.08;;
7845;SDS011;3968;51.424;6.788;2022-09-20T10:44:15;5.38;;;2.20;;
7845;SDS011;3968;51.424;6.788;2022-09-20T11:00:28;5.60;;;2.00;;
7845;SDS011;3968;51.424;6.788;2022-09-20T11:06:25;5.70;;;2.05;;
7845;SDS011;3968;51.424;6.788;2022-09-20T11:08:32;11.90;;;2.00;;
7845;SDS011;3968;51.424;6.788;2022-09-20T11:16:00;5.53;;;1.48;;
7845;SDS011;3968;51.424;6.788;2022-09-20T11:18:48;5.45;;;1.67;;
7845;SDS011;3968;51.424;6.788;2022-09-20T11:21:26;4.50;;;1.48;;
7845;SDS011;3968;51.424;6.788;2022-09-20T11:26:51;8.23;;;1.50;;
7845;SDS011;3968;51.424;6.788;2022-09-20T11:32:07;3.78;;;1.90;;
7845;SDS011;3968;51.424;6.788;2022-09-20T11:37:24;6.65;;;2.20;;
7845;SDS011;3968;51.424;6.788;2022-09-20T11:39:58;5.72;;;2.13;;
7845;SDS011;3968;51.424;6.788;2022-09-20T11:42:37;10.38;;;2.08;;
7845;SDS011;3968;51.424;6.788;2022-09-20T11:45:05;6.57;;;2.30;;
7845;SDS011;3968;51.424;6.788;2022-09-20T11:47:39;6.30;;;2.17;;
7845;SDS011;3968;51.424;6.788;2022-09-20T11:58:09;6.53;;;2.53;;
7845;SDS011;3968;51.424;6.788;2022-09-20T12:00:38;10.38;;;6.05;;
7845;SDS011;3968;51.424;6.788;2022-09-20T12:03:06;9.50;;;3.72;;
7845;SDS011;3968;51.424;6.788;2022-09-20T12:05:46;4.05;;;2.70;;
7845;SDS011;3968;51.424;6.788;2022-09-20T12:08:26;3.42;;;1.60;;
7845;SDS011;3968;51.424;6.788;2022-09-20T12:13:28;8.75;;;2.72;;
7845;SDS011;3968;51.424;6.788;2022-09-20T12:16:03;4.53;;;1.73;;
7845;SDS011;3968;51.424;6.788;2022-09-20T12:21:12;5.78;;;2.75;;
7845;SDS011;3968;51.424;6.788;2022-09-20T12:23:44;4.65;;;2.30;;
7845;SDS011;3968;51.424;6.788;2022-09-20T12:28:52;2.85;;;1.35;;
7845;SDS011;3968;51.424;6.788;2022-09-20T12:36:38;6.63;;;2.00;;
7845;SDS011;3968;51.424;6.788;2022-09-20T12:39:28;4.72;;;2.67;;
7845;SDS011;3968;51.424;6.788;2022-09-20T12:41:56;5.97;;;1.98;;
7845;SDS011;3968;51.424;6.788;2022-09-20T13:00:48;2.75;;;1.70;;
7845;SDS011;3968;51.424;6.788;2022-09-20T13:03:22;6.72;;;2.15;;
7845;SDS011;3968;51.424;6.788;2022-09-20T13:11:11;6.07;;;2.97;;
7845;SDS011;3968;51.424;6.788;2022-09-20T13:13:45;3.97;;;2.08;;
7845;SDS011;3968;51.424;6.788;2022-09-20T13:19:18;6.43;;;2.25;;
7845;SDS011;3968;51.424;6.788;2022-09-20T13:24:25;3.25;;;1.70;;
7845;SDS011;3968;51.424;6.788;2022-09-20T13:26:54;12.43;;;6.50;;
7845;SDS011;3968;51.424;6.788;2022-09-20T13:29:33;4.60;;;2.57;;
7845;SDS011;3968;51.424;6.788;2022-09-20T13:32:45;7.18;;;4.00;;
7845;SDS011;3968;51.424;6.788;2022-09-20T13:35:05;5.07;;;1.70;;
7845;SDS011;3968;51.424;6.788;2022-09-20T13:37:37;7.05;;;3.55;;
7845;SDS011;3968;51.424;6.788;2022-09-20T13:42:45;9.27;;;3.35;;
7845;SDS011;3968;51.424;6.788;2022-09-20T13:45:13;4.65;;;2.03;;
7845;SDS011;3968;51.424;6.788;2022-09-20T13:47:40;3.10;;;1.45;;
7845;SDS011;3968;51.424;6.788;2022-09-20T13:52:49;5.95;;;1.88;;
7845;SDS011;3968;51.424;6.788;2022-09-20T13:55:20;6.20;;;1.70;;
7845;SDS011;3968;51.424;6.788;2022-09-20T13:58:00;6.45;;;2.83;;
7845;SDS011;3968;51.424;6.788;2022-09-20T14:00:31;6.30;;;3.08;;
7845;SDS011;3968;51.424;6.788;2022-09-20T14:02:58;12.50;;;6.40;;
7845;SDS011;3968;51.424;6.788;2022-09-20T14:05:25;5.07;;;2.72;;
7845;SDS011;3968;51.424;6.788;2022-09-20T14:07:53;9.82;;;5.93;;
7845;SDS011;3968;51.424;6.788;2022-09-20T14:12:57;5.65;;;2.05;;
7845;SDS011;3968;51.424;6.788;2022-09-20T14:15:26;8.27;;;2.83;;
7845;SDS011;3968;51.424;6.788;2022-09-20T14:17:57;8.30;;;3.28;;
7845;SDS011;3968;51.424;6.788;2022-09-20T14:20:24;3.67;;;2.38;;
7845;SDS011;3968;51.424;6.788;2022-09-20T14:22:51;6.22;;;2.22;;
7845;SDS011;3968;51.424;6.788;2022-09-20T14:25:24;7.00;;;3.53;;
7845;SDS011;3968;51.424;6.788;2022-09-20T14:30:49;5.10;;;2.60;;
7845;SDS011;3968;51.424;6.788;2022-09-20T14:33:17;6.05;;;2.42;;
7845;SDS011;3968;51.424;6.788;2022-09-20T14:35:50;6.32;;;2.28;;
7845;SDS011;3968;51.424;6.788;2022-09-20T14:38:17;6.22;;;2.08;;
7845;SDS011;3968;51.424;6.788;2022-09-20T14:40:48;8.85;;;4.32;;
7845;SDS011;3968;51.424;6.788;2022-09-20T14:43:28;7.30;;;2.53;;
7845;SDS011;3968;51.424;6.788;2022-09-20T14:46:33;5.75;;;2.30;;
7845;SDS011;3968;51.424;6.788;2022-09-20T14:48:53;7.13;;;2.30;;
7845;SDS011;3968;51.424;6.788;2022-09-20T14:51:39;7.35;;;3.17;;
7845;SDS011;3968;51.424;6.788;2022-09-20T14:56:35;10.10;;;2.50;;
7845;SDS011;3968;51.424;6.788;2022-09-20T15:01:52;5.38;;;1.80;;
7845;SDS011;3968;51.424;6.788;2022-09-20T15:04:22;9.98;;;4.22;;
7845;SDS011;3968;51.424;6.788;2022-09-20T15:06:49;8.35;;;4.03;;
7845;SDS011;3968;51.424;6.788;2022-09-20T15:09:16;7.68;;;3.25;;
7845;SDS011;3968;51.424;6.788;2022-09-20T15:11:44;9.90;;;3.40;;
7845;SDS011;3968;51.424;6.788;2022-09-20T15:14:10;8.57;;;3.08;;
7845;SDS011;3968;51.424;6.788;2022-09-20T15:16:35;7.05;;;2.45;;
7845;SDS011;3968;51.424;6.788;2022-09-20T15:19:01;6.20;;;2.42;;
7845;SDS011;3968;51.424;6.788;2022-09-20T15:21:29;9.75;;;4.22;;
7845;SDS011;3968;51.424;6.788;2022-09-20T15:23:56;5.53;;;2.25;;
7845;SDS011;3968;51.424;6.788;2022-09-20T15:26:21;12.95;;;5.93;;
7845;SDS011;3968;51.424;6.788;2022-09-20T15:28:47;7.25;;;2.83;;
7845;SDS011;3968;51.424;6.788;2022-09-20T15:31:12;11.82;;;3.45;;
7845;SDS011;3968;51.424;6.788;2022-09-20T15:33:40;6.50;;;2.22;;
7845;SDS011;3968;51.424;6.788;2022-09-20T15:36:06;9.00;;;3.90;;
7845;SDS011;3968;51.424;6.788;2022-09-20T15:38:32;8.23;;;3.30;;
7845;SDS011;3968;51.424;6.788;2022-09-20T15:40:59;6.38;;;3.55;;
7845;SDS011;3968;51.424;6.788;2022-09-20T15:43:28;8.23;;;3.00;;
7845;SDS011;3968;51.424;6.788;2022-09-20T15:45:56;4.53;;;1.75;;
7845;SDS011;3968;51.424;6.788;2022-09-20T15:48:24;5.10;;;2.75;;
7845;SDS011;3968;51.424;6.788;2022-09-20T15:51:07;9.10;;;3.33;;
7845;SDS011;3968;51.424;6.788;2022-09-20T15:53:36;12.63;;;2.67;;
7845;SDS011;3968;51.424;6.788;2022-09-20T15:56:12;5.32;;;2.15;;
7845;SDS011;3968;51.424;6.788;2022-09-20T15:58:42;4.57;;;1.63;;
7845;SDS011;3968;51.424;6.788;2022-09-20T16:01:10;11.93;;;4.63;;
7845;SDS011;3968;51.424;6.788;2022-09-20T16:03:36;7.15;;;3.20;;
7845;SDS011;3968;51.424;6.788;2022-09-20T16:06:04;7.03;;;2.33;;
7845;SDS011;3968;51.424;6.788;2022-09-20T16:08:35;8.25;;;2.38;;
7845;SDS011;3968;51.424;6.788;2022-09-20T16:11:02;7.50;;;2.95;;
7845;SDS011;3968;51.424;6.788;2022-09-20T16:13:29;5.32;;;1.88;;
7845;SDS011;3968;51.424;6.788;2022-09-20T16:15:58;15.15;;;6.82;;
7845;SDS011;3968;51.424;6.788;2022-09-20T16:18:25;9.13;;;3.47;;
7845;SDS011;3968;51.424;6.788;2022-09-20T16:21:11;7.07;;;2.38;;
7845;SDS011;3968;51.424;6.788;2022-09-20T16:23:38;10.63;;;5.17;;
7845;SDS011;3968;51.424;6.788;2022-09-20T16:26:05;8.45;;;2.85;;
7845;SDS011;3968;51.424;6.788;2022-09-20T16:28:37;7.88;;;2.70;;
7845;SDS011;3968;51.424;6.788;2022-09-20T16:34:05;5.40;;;1.77;;
7845;SDS011;3968;51.424;6.788;2022-09-20T16:36:33;8.73;;;3.65;;
7845;SDS011;3968;51.424;6.788;2022-09-20T16:38:59;5.85;;;1.98;;
7845;SDS011;3968;51.424;6.788;2022-09-20T16:41:25;5.40;;;2.23;;
7845;SDS011;3968;51.424;6.788;2022-09-20T16:43:52;6.65;;;2.70;;
7845;SDS011;3968;51.424;6.788;2022-09-20T16:46:19;3.72;;;2.08;;
7845;SDS011;3968;51.424;6.788;2022-09-20T16:48:46;6.30;;;1.87;;
7845;SDS011;3968;51.424;6.788;2022-09-20T16:51:13;7.90;;;2.13;;
7845;SDS011;3968;51.424;6.788;2022-09-20T16:53:39;6.33;;;2.17;;
7845;SDS011;3968;51.424;6.788;2022-09-20T16:56:07;5.87;;;1.97;;
7845;SDS011;3968;51.424;6.788;2022-09-20T16:58:41;6.33;;;2.30;;
7845;SDS011;3968;51.424;6.788;2022-09-20T17:01:07;6.17;;;2.40;;
7845;SDS011;3968;51.424;6.788;2022-09-20T17:03:33;8.90;;;2.60;;
7845;SDS011;3968;51.424;6.788;2022-09-20T17:06:02;4.80;;;2.23;;
7845;SDS011;3968;51.424;6.788;2022-09-20T17:08:30;5.90;;;2.70;;
7845;SDS011;3968;51.424;6.788;2022-09-20T17:11:07;5.77;;;2.40;;
7845;SDS011;3968;51.424;6.788;2022-09-20T17:13:38;3.67;;;2.20;;
7845;SDS011;3968;51.424;6.788;2022-09-20T17:16:06;10.00;;;2.90;;
7845;SDS011;3968;51.424;6.788;2022-09-20T17:18:34;9.23;;;2.33;;
7845;SDS011;3968;51.424;6.788;2022-09-20T17:21:06;5.83;;;2.40;;
7845;SDS011;3968;51.424;6.788;2022-09-20T17:23:38;4.43;;;2.60;;
7845;SDS011;3968;51.424;6.788;2022-09-20T17:26:12;7.27;;;2.70;;
7845;SDS011;3968;51.424;6.788;2022-09-20T17:28:47;7.97;;;2.60;;
7845;SDS011;3968;51.424;6.788;2022-09-20T17:31:21;10.20;;;2.50;;
7845;SDS011;3968;51.424;6.788;2022-09-20T17:33:49;10.13;;;2.60;;
7845;SDS011;3968;51.424;6.788;2022-09-20T17:36:19;8.33;;;2.90;;
7845;SDS011;3968;51.424;6.788;2022-09-20T17:38:46;7.23;;;3.00;;
7845;SDS011;3968;51.424;6.788;2022-09-20T17:41:17;10.00;;;3.50;;
7845;SDS011;3968;51.424;6.788;2022-09-20T17:43:44;10.17;;;3.53;;
7845;SDS011;3968;51.424;6.788;2022-09-20T17:46:17;11.77;;;3.70;;
7845;SDS011;3968;51.424;6.788;2022-09-20T17:48:46;11.33;;;4.50;;
7845;SDS011;3968;51.424;6.788;2022-09-20T17:51:15;8.60;;;3.90;;
7845;SDS011;3968;51.424;6.788;2022-09-20T17:53:42;7.70;;;3.17;;
7845;SDS011;3968;51.424;6.788;2022-09-20T17:56:09;7.40;;;3.73;;
7845;SDS011;3968;51.424;6.788;2022-09-20T17:58:36;7.10;;;3.50;;
7845;SDS011;3968;51.424;6.788;2022-09-20T18:01:04;9.10;;;3.20;;
7845;SDS011;3968;51.424;6.788;2022-09-20T18:03:35;8.17;;;3.67;;
7845;SDS011;3968;51.424;6.788;2022-09-20T18:06:15;8.17;;;3.30;;
7845;SDS011;3968;51.424;6.788;2022-09-20T18:11:15;7.43;;;4.10;;
7845;SDS011;3968;51.424;6.788;2022-09-20T18:13:43;11.20;;;3.93;;
7845;SDS011;3968;51.424;6.788;2022-09-20T18:16:09;9.13;;;4.30;;
7845;SDS011;3968;51.424;6.788;2022-09-20T18:18:37;8.80;;;3.70;;
7845;SDS011;3968;51.424;6.788;2022-09-20T18:23:46;9.33;;;4.43;;
7845;SDS011;3968;51.424;6.788;2022-09-20T18:26:16;9.70;;;4.80;;
7845;SDS011;3968;51.424;6.788;2022-09-20T18:28:56;9.47;;;5.30;;
7845;SDS011;3968;51.424;6.788;2022-09-20T18:31:36;7.73;;;4.60;;
7845;SDS011;3968;51.424;6.788;2022-09-20T18:34:05;8.20;;;4.13;;
7845;SDS011;3968;51.424;6.788;2022-09-20T18:36:35;13.90;;;3.93;;
7845;SDS011;3968;51.424;6.788;2022-09-20T18:39:03;5.77;;;4.07;;
7845;SDS011;3968;51.424;6.788;2022-09-20T18:41:29;7.60;;;3.73;;
7845;SDS011;3968;51.424;6.788;2022-09-20T18:43:57;8.07;;;4.10;;
7845;SDS011;3968;51.424;6.788;2022-09-20T18:46:24;10.20;;;3.60;;
7845;SDS011;3968;51.424;6.788;2022-09-20T18:48:55;17.73;;;4.13;;
7845;SDS011;3968;51.424;6.788;2022-09-20T18:51:23;9.63;;;4.47;;
7845;SDS011;3968;51.424;6.788;2022-09-20T18:53:49;11.00;;;3.70;;
7845;SDS011;3968;51.424;6.788;2022-09-20T18:58:44;10.77;;;4.40;;
7845;SDS011;3968;51.424;6.788;2022-09-20T19:17:51;5.37;;;3.53;;
7845;SDS011;3968;51.424;6.788;2022-09-20T19:20:40;6.10;;;3.20;;
7845;SDS011;3968;51.424;6.788;2022-09-20T19:23:22;11.30;;;3.47;;
7845;SDS011;3968;51.424;6.788;2022-09-20T19:26:20;8.17;;;3.03;;
7845;SDS011;3968;51.424;6.788;2022-09-20T19:28:48;12.17;;;3.70;;
7845;SDS011;3968;51.424;6.788;2022-09-20T19:31:18;6.23;;;3.50;;
7845;SDS011;3968;51.424;6.788;2022-09-20T19:33:50;7.63;;;3.50;;
7845;SDS011;3968;51.424;6.788;2022-09-20T19:36:18;5.57;;;3.00;;
7845;SDS011;3968;51.424;6.788;2022-09-20T19:38:55;8.03;;;3.90;;
7845;SDS011;3968;51.424;6.788;2022-09-20T19:41:48;7.83;;;3.50;;
7845;SDS011;3968;51.424;6.788;2022-09-20T19:44:34;7.60;;;4.07;;
7845;SDS011;3968;51.424;6.788;2022-09-20T19:52:09;9.77;;;3.77;;
7845;SDS011;3968;51.424;6.788;2022-09-20T19:54:37;6.23;;;3.30;;
7845;SDS011;3968;51.424;6.788;2022-09-20T19:57:04;6.67;;;3.40;;
7845;SDS011;3968;51.424;6.788;2022-09-20T19:59:33;11.47;;;3.20;;
7845;SDS011;3968;51.424;6.788;2022-09-20T20:01:59;9.27;;;3.17;;
7845;SDS011;3968;51.424;6.788;2022-09-20T20:04:25;11.87;;;3.20;;
7845;SDS011;3968;51.424;6.788;2022-09-20T20:14:54;6.43;;;3.13;;
7845;SDS011;3968;51.424;6.788;2022-09-20T20:28:24;5.87;;;3.23;;
7845;SDS011;3968;51.424;6.788;2022-09-20T20:30:50;8.17;;;3.37;;
7845;SDS011;3968;51.424;6.788;2022-09-20T20:33:16;8.37;;;3.67;;
7845;SDS011;3968;51.424;6.788;2022-09-20T20:35:43;4.90;;;2.80;;
7845;SDS011;3968;51.424;6.788;2022-09-20T20:38:17;9.03;;;3.37;;
7845;SDS011;3968;51.424;6.788;2022-09-20T20:40:42;9.33;;;3.60;;
7845;SDS011;3968;51.424;6.788;2022-09-20T20:43:08;11.17;;;3.60;;
7845;SDS011;3968;51.424;6.788;2022-09-20T20:45:34;7.97;;;3.60;;
7845;SDS011;3968;51.424;6.788;2022-09-20T20:47:59;5.47;;;3.27;;
7845;SDS011;3968;51.424;6.788;2022-09-20T20:50:25;5.53;;;3.20;;
7845;SDS011;3968;51.424;6.788;2022-09-20T20:52:53;9.93;;;3.13;;
7845;SDS011;3968;51.424;6.788;2022-09-20T20:55:20;10.00;;;3.20;;
7845;SDS011;3968;51.424;6.788;2022-09-20T20:57:53;5.83;;;3.53;;
7845;SDS011;3968;51.424;6.788;2022-09-20T21:00:22;9.50;;;3.07;;
7845;SDS011;3968;51.424;6.788;2022-09-20T21:03:00;8.90;;;3.43;;
7845;SDS011;3968;51.424;6.788;2022-09-20T21:05:27;7.50;;;3.20;;
7845;SDS011;3968;51.424;6.788;2022-09-20T21:07:53;8.30;;;3.27;;
7845;SDS011;3968;51.424;6.788;2022-09-20T21:10:19;6.90;;;3.60;;
7845;SDS011;3968;51.424;6.788;2022-09-20T21:12:46;7.23;;;3.43;;
7845;SDS011;3968;51.424;6.788;2022-09-20T21:15:17;4.97;;;3.33;;
7845;SDS011;3968;51.424;6.788;2022-09-20T21:17:50;9.77;;;3.50;;
7845;SDS011;3968;51.424;6.788;2022-09-20T21:20:16;9.53;;;3.87;;
7845;SDS011;3968;51.424;6.788;2022-09-20T21:22:42;7.93;;;3.70;;
7845;SDS011;3968;51.424;6.788;2022-09-20T21:25:08;9.27;;;3.80;;
7845;SDS011;3968;51.424;6.788;2022-09-20T21:27:33;6.50;;;3.73;;
7845;SDS011;3968;51.424;6.788;2022-09-20T21:30:02;8.60;;;3.23;;
7845;SDS011;3968;51.424;6.788;2022-09-20T21:32:29;12.30;;;3.47;;